createdAt,value
2023-03-06T00:01:17.794Z,77.44
2023-03-06T00:03:45.684Z,77.44
2023-03-06T00:06:13.615Z,77.47
2023-03-06T00:08:44.431Z,77.41
2023-03-06T00:11:14.910Z,77.39
2023-03-06T00:13:42.685Z,77.42
2023-03-06T00:16:15.631Z,77.32
2023-03-06T00:18:44.161Z,77.31
2023-03-06T00:21:14.139Z,77.26
2023-03-06T00:23:41.913Z,77.33
2023-03-06T00:26:10.284Z,77.29
2023-03-06T00:28:38.247Z,77.28
2023-03-06T00:31:06.294Z,77.29
2023-03-06T00:33:34.161Z,77.23
2023-03-06T00:36:05.040Z,77.23
2023-03-06T00:38:37.492Z,77.21
2023-03-06T00:41:13.448Z,77.21
2023-03-06T00:43:44.315Z,77.23
2023-03-06T00:46:12.248Z,77.25
2023-03-06T00:48:42.276Z,77.20
2023-03-06T00:51:12.805Z,77.20
2023-03-06T00:53:41.604Z,77.16
2023-03-06T00:56:09.473Z,77.13
2023-03-06T00:58:37.767Z,77.11
2023-03-06T01:01:05.895Z,77.07
2023-03-06T01:03:34.080Z,77.06
2023-03-06T01:06:02.141Z,77.01
2023-03-06T01:08:30.221Z,76.97
2023-03-06T01:10:58.295Z,76.93
2023-03-06T01:13:36.100Z,76.93
2023-03-06T01:16:10.351Z,76.87
2023-03-06T01:18:39.106Z,76.87
2023-03-06T01:21:07.318Z,76.86
2023-03-06T01:23:35.257Z,76.85
2023-03-06T01:26:03.703Z,76.82
2023-03-06T01:28:34.129Z,76.88
2023-03-06T01:31:02.142Z,76.88
2023-03-06T01:33:30.342Z,76.82
2023-03-06T01:35:58.208Z,76.84
2023-03-06T01:38:28.458Z,76.86
2023-03-06T01:41:04.500Z,76.79
2023-03-06T01:43:35.614Z,76.78
2023-03-06T01:46:26.621Z,76.74
2023-03-06T01:49:09.174Z,76.72
2023-03-06T01:51:48.487Z,76.70
2023-03-06T01:54:28.245Z,76.70
2023-03-06T01:57:11.882Z,76.66
2023-03-06T01:59:42.134Z,76.70
2023-03-06T02:02:21.963Z,76.63
2023-03-06T02:04:53.389Z,76.59
2023-03-06T02:07:21.942Z,76.65
2023-03-06T02:09:52.268Z,76.73
2023-03-06T02:12:21.419Z,76.87
2023-03-06T02:14:50.179Z,76.97
2023-03-06T02:17:20.600Z,76.98
2023-03-06T02:20:01.306Z,77.05
2023-03-06T02:22:46.366Z,77.12
2023-03-06T02:25:26.507Z,77.09
2023-03-06T02:27:54.674Z,77.16
2023-03-06T02:30:26.144Z,77.26
2023-03-06T02:32:55.025Z,77.45
2023-03-06T02:35:26.846Z,77.66
2023-03-06T02:37:57.978Z,77.63
2023-03-06T02:40:26.670Z,77.74
2023-03-06T02:42:57.280Z,77.84
2023-03-06T02:45:38.309Z,77.99
2023-03-06T02:48:16.462Z,78.06
2023-03-06T02:50:45.924Z,78.30
2023-03-06T02:53:16.811Z,78.37
2023-03-06T02:55:50.302Z,78.52
2023-03-06T02:58:22.313Z,78.57
2023-03-06T03:00:50.759Z,78.55
2023-03-06T03:03:19.007Z,78.46
2023-03-06T03:05:47.288Z,78.44
2023-03-06T03:08:15.280Z,78.43
2023-03-06T03:10:43.354Z,78.51
2023-03-06T03:13:14.224Z,78.51
2023-03-06T03:15:42.664Z,78.52
2023-03-06T03:18:11.947Z,78.70
2023-03-06T03:20:42.802Z,78.81
2023-03-06T03:23:13.579Z,78.90
2023-03-06T03:25:41.496Z,78.93
2023-03-06T03:28:09.825Z,79.02
2023-03-06T03:30:39.657Z,78.93
2023-03-06T03:33:07.986Z,78.90
2023-03-06T03:35:36.088Z,78.91
2023-03-06T03:38:04.101Z,78.93
2023-03-06T03:40:32.499Z,78.99
2023-03-06T03:43:01.185Z,78.98
2023-03-06T03:45:29.030Z,79.18
2023-03-06T03:47:57.025Z,79.40
2023-03-06T03:50:27.350Z,79.66
2023-03-06T03:53:04.573Z,79.91
2023-03-06T03:55:32.784Z,80.09
2023-03-06T03:58:01.050Z,80.08
2023-03-06T04:00:29.138Z,80.09
2023-03-06T04:02:56.913Z,79.93
2023-03-06T04:05:33.972Z,79.88
2023-03-06T04:08:03.317Z,80.06
2023-03-06T04:10:31.639Z,80.11
2023-03-06T04:13:02.130Z,80.05
2023-03-06T04:15:32.845Z,80.03
2023-03-06T04:18:00.756Z,79.97
2023-03-06T04:20:29.021Z,79.95
2023-03-06T04:22:59.990Z,79.96
2023-03-06T04:25:27.832Z,80.03
2023-03-06T04:27:55.817Z,80.05
2023-03-06T04:30:34.124Z,80.01
2023-03-06T04:33:02.610Z,80.14
2023-03-06T04:35:32.189Z,80.17
2023-03-06T04:38:00.081Z,80.27
2023-03-06T04:40:31.387Z,80.27
2023-03-06T04:43:00.549Z,80.26
2023-03-06T04:45:30.417Z,80.19
2023-03-06T04:48:11.196Z,80.16
2023-03-06T04:50:40.265Z,80.10
2023-03-06T04:53:19.702Z,80.14
2023-03-06T04:55:48.090Z,80.14
2023-03-06T04:58:16.501Z,80.18
2023-03-06T05:00:44.732Z,80.25
2023-03-06T05:03:15.295Z,80.28
2023-03-06T05:05:43.196Z,80.29
2023-03-06T05:08:15.324Z,80.36
2023-03-06T05:10:44.917Z,80.40
2023-03-06T05:13:47.432Z,80.47
2023-03-06T05:16:15.345Z,80.26
2023-03-06T05:18:43.304Z,80.08
2023-03-06T05:21:11.331Z,80.03
2023-03-06T05:23:39.125Z,80.07
2023-03-06T05:26:15.542Z,80.20
2023-03-06T05:28:44.663Z,80.31
2023-03-06T05:31:12.425Z,80.37
2023-03-06T05:33:40.967Z,80.39
2023-03-06T05:36:09.723Z,80.36
2023-03-06T05:38:37.611Z,80.29
2023-03-06T05:41:05.488Z,80.09
2023-03-06T05:43:36.295Z,79.94
2023-03-06T05:46:06.263Z,79.86
2023-03-06T05:48:35.238Z,79.85
2023-03-06T05:51:04.554Z,79.91
2023-03-06T05:53:32.896Z,80.00
2023-03-06T05:56:06.908Z,80.07
2023-03-06T05:58:35.083Z,80.19
2023-03-06T06:01:14.584Z,80.33
2023-03-06T06:03:42.923Z,80.36
2023-03-06T06:06:13.198Z,80.42
2023-03-06T06:08:44.499Z,80.39
2023-03-06T06:11:13.472Z,80.33
2023-03-06T06:13:42.179Z,80.13
2023-03-06T06:16:16.725Z,79.91
2023-03-06T06:18:45.790Z,79.81
2023-03-06T06:21:17.640Z,79.70
2023-03-06T06:23:46.270Z,79.67
2023-03-06T06:26:14.033Z,79.56
2023-03-06T06:28:41.836Z,79.45
2023-03-06T06:31:12.515Z,79.31
2023-03-06T06:33:42.071Z,79.18
2023-03-06T06:36:20.678Z,79.13
2023-03-06T06:38:49.458Z,78.99
2023-03-06T06:44:12.597Z,78.72
2023-03-06T06:49:29.708Z,78.61
2023-03-06T06:51:58.096Z,78.50
2023-03-06T06:54:27.695Z,78.37
2023-03-06T06:56:55.648Z,78.30
2023-03-06T06:59:31.653Z,78.23
2023-03-06T07:01:59.498Z,78.30
2023-03-06T07:04:27.240Z,78.21
2023-03-06T07:06:57.020Z,78.25
2023-03-06T07:09:25.340Z,78.28
2023-03-06T07:11:53.784Z,78.25
2023-03-06T07:14:25.530Z,78.28
2023-03-06T07:16:53.375Z,78.17
2023-03-06T07:19:21.782Z,78.11
2023-03-06T07:21:49.712Z,78.20
2023-03-06T07:24:20.613Z,78.11
2023-03-06T07:26:58.401Z,78.06
2023-03-06T07:29:26.952Z,78.05
2023-03-06T07:32:02.216Z,77.92
2023-03-06T07:34:43.959Z,77.85
2023-03-06T07:37:12.493Z,77.76
2023-03-06T07:39:43.209Z,77.64
2023-03-06T07:42:14.794Z,77.46
2023-03-06T07:44:42.946Z,77.27
2023-03-06T07:47:13.912Z,77.07
2023-03-06T07:49:42.319Z,77.05
2023-03-06T07:52:11.241Z,77.22
2023-03-06T07:54:39.246Z,77.17
2023-03-06T07:57:07.074Z,76.77
2023-03-06T07:59:34.862Z,76.62
2023-03-06T08:02:03.705Z,76.24
2023-03-06T08:04:32.231Z,76.11
2023-03-06T08:07:00.407Z,76.03
2023-03-06T08:09:36.987Z,75.63
2023-03-06T08:12:27.106Z,75.34
2023-03-06T08:14:56.004Z,75.00
2023-03-06T08:17:23.984Z,75.24
2023-03-06T08:19:51.823Z,75.14
2023-03-06T08:22:20.075Z,74.94
2023-03-06T08:24:47.832Z,75.01
2023-03-06T08:27:16.298Z,74.43
2023-03-06T08:29:44.212Z,74.37
2023-03-06T08:32:12.400Z,74.67
2023-03-06T08:34:41.200Z,74.08
2023-03-06T08:37:09.751Z,74.23
2023-03-06T08:39:37.940Z,73.96
2023-03-06T08:42:05.793Z,74.03
2023-03-06T08:44:56.333Z,73.75
2023-03-06T08:47:24.633Z,73.88
2023-03-06T08:49:52.872Z,73.70
2023-03-06T08:52:21.045Z,73.20
2023-03-06T08:54:48.823Z,72.68
2023-03-06T08:57:16.741Z,72.65
2023-03-06T08:59:44.548Z,72.83
2023-03-06T09:02:15.371Z,72.78
2023-03-06T09:04:44.112Z,72.61
2023-03-06T09:07:12.824Z,72.55
2023-03-06T09:09:40.747Z,72.54
2023-03-06T09:12:08.600Z,72.37
2023-03-06T09:14:39.295Z,71.76
2023-03-06T09:17:07.646Z,71.94
2023-03-06T09:19:35.941Z,71.99
2023-03-06T09:22:03.833Z,71.73
2023-03-06T09:24:31.771Z,71.58
2023-03-06T09:26:59.799Z,71.49
2023-03-06T09:29:27.955Z,71.05
2023-03-06T09:31:56.220Z,70.56
2023-03-06T09:34:24.740Z,70.29
2023-03-06T09:36:57.438Z,70.76
2023-03-06T09:39:26.231Z,70.68
2023-03-06T09:41:55.492Z,70.91
2023-03-06T09:44:27.643Z,70.74
2023-03-06T09:47:17.644Z,70.64
2023-03-06T09:50:04.871Z,70.84
2023-03-06T09:52:46.046Z,70.35
2023-03-06T09:55:19.200Z,70.55
2023-03-06T09:58:09.224Z,70.37
2023-03-06T10:00:59.312Z,70.03
2023-03-06T10:03:38.956Z,69.53
2023-03-06T10:06:16.573Z,69.19
2023-03-06T10:08:55.709Z,69.02
2023-03-06T10:11:44.809Z,68.79
2023-03-06T10:14:35.268Z,68.59
2023-03-06T10:17:05.086Z,68.42
2023-03-06T10:19:37.158Z,67.78
2023-03-06T10:22:25.146Z,68.06
2023-03-06T10:25:19.923Z,67.90
2023-03-06T10:27:48.314Z,67.35
2023-03-06T10:30:58.660Z,67.01
2023-03-06T10:33:38.586Z,66.54
2023-03-06T10:36:06.649Z,66.60
2023-03-06T10:38:37.819Z,66.27
2023-03-06T10:41:12.402Z,66.19
2023-03-06T10:43:45.405Z,65.73
2023-03-06T10:46:29.419Z,66.13
2023-03-06T10:49:00.717Z,66.44
2023-03-06T10:51:30.844Z,66.18
2023-03-06T10:54:23.978Z,66.31
2023-03-06T10:56:52.040Z,65.60
2023-03-06T10:59:25.337Z,64.77
2023-03-06T11:02:33.344Z,63.92
2023-03-06T11:05:01.927Z,63.59
2023-03-06T11:07:36.995Z,64.26
2023-03-06T11:10:22.101Z,64.36
2023-03-06T11:13:07.739Z,63.93
2023-03-06T11:15:35.886Z,63.14
2023-03-06T11:18:24.906Z,62.33
2023-03-06T11:20:55.768Z,63.22
2023-03-06T11:23:36.305Z,63.50
2023-03-06T11:26:16.415Z,62.12
2023-03-06T11:28:59.432Z,63.06
2023-03-06T12:15:33.975Z,58.54
2023-03-06T12:18:12.701Z,57.64
2023-03-06T12:20:47.285Z,58.24
2023-03-06T12:23:44.769Z,58.25
2023-03-06T12:39:08.405Z,57.46
2023-03-06T12:41:42.700Z,57.21
2023-03-06T12:44:38.250Z,57.31
2023-03-06T12:47:09.869Z,58.08
2023-03-06T12:49:41.564Z,57.86
2023-03-06T12:52:11.046Z,57.92
2023-03-06T12:54:40.519Z,57.48
2023-03-06T12:57:08.553Z,57.14
2023-03-06T12:59:36.631Z,57.20
2023-03-06T13:02:39.251Z,57.03
2023-03-06T13:05:29.622Z,57.08
2023-03-06T13:08:32.102Z,58.04
2023-03-06T13:11:41.271Z,57.62
2023-03-06T13:14:54.207Z,57.37
2023-03-06T13:17:27.706Z,56.90
2023-03-06T13:20:12.461Z,57.53
2023-03-06T13:22:40.841Z,57.99
2023-03-06T13:25:17.500Z,57.28
2023-03-06T13:27:53.775Z,57.66
2023-03-06T13:30:21.896Z,56.92
2023-03-06T13:32:52.088Z,56.70
2023-03-06T13:35:31.610Z,56.65
2023-03-06T13:37:59.798Z,56.45
2023-03-06T13:40:28.082Z,56.31
2023-03-06T13:43:06.538Z,56.08
2023-03-06T13:45:38.087Z,56.74
2023-03-06T13:48:41.569Z,56.70
2023-03-06T13:50:54.972Z,56.34
2023-03-06T13:53:41.540Z,56.79
2023-03-06T13:56:24.092Z,57.24
2023-03-06T13:59:23.637Z,56.79
2023-03-06T14:02:17.163Z,56.66
2023-03-06T14:04:54.053Z,56.89
2023-03-06T14:07:29.703Z,56.96
2023-03-06T14:10:00.416Z,57.19
2023-03-06T14:12:34.158Z,56.38
2023-03-06T14:15:41.475Z,56.18
2023-03-06T14:18:25.764Z,56.25
2023-03-06T14:21:05.706Z,55.55
2023-03-06T14:23:46.548Z,55.94
2023-03-06T14:26:18.605Z,55.44
2023-03-06T14:28:51.258Z,55.18
2023-03-06T14:31:21.410Z,54.94
2023-03-06T14:33:53.842Z,55.12
2023-03-06T14:36:23.137Z,55.11
2023-03-06T14:38:54.982Z,54.83
2023-03-06T14:41:28.262Z,54.23
2023-03-06T14:44:16.021Z,55.22
2023-03-06T14:46:43.704Z,54.83
2023-03-06T14:49:15.878Z,54.77
2023-03-06T14:51:45.934Z,54.82
2023-03-06T14:54:17.021Z,54.93
2023-03-06T14:56:46.863Z,55.07
2023-03-06T14:59:17.965Z,55.24
2023-03-06T15:01:50.913Z,56.19
2023-03-06T15:04:41.684Z,57.36
2023-03-06T15:07:15.735Z,58.25
2023-03-06T15:09:53.436Z,59.10
2023-03-06T15:12:23.893Z,59.63
2023-03-06T15:15:06.084Z,60.35
2023-03-06T15:17:44.472Z,61.13
2023-03-06T15:20:36.063Z,61.25
2023-03-06T15:23:34.355Z,61.88
2023-03-06T15:26:25.909Z,62.21
2023-03-06T15:29:03.394Z,62.92
2023-03-06T15:31:40.276Z,63.33
2023-03-06T15:34:07.309Z,63.13
2023-03-06T15:36:36.644Z,63.59
2023-03-06T15:39:34.282Z,64.50
2023-03-06T15:42:20.163Z,64.60
2023-03-06T15:44:55.455Z,65.07
2023-03-06T15:47:23.338Z,65.00
2023-03-06T15:49:52.435Z,65.08
2023-03-06T15:52:20.440Z,65.25
2023-03-06T15:54:47.391Z,65.40
2023-03-06T15:57:28.671Z,65.74
2023-03-06T15:59:55.920Z,65.95
2023-03-06T16:02:23.713Z,65.98
2023-03-06T16:04:51.248Z,66.33
2023-03-06T16:07:17.821Z,67.16
2023-03-06T16:09:44.863Z,67.18
2023-03-06T16:12:21.141Z,66.98
2023-03-06T16:14:48.616Z,68.00
2023-03-06T16:17:16.016Z,67.68
2023-03-06T16:19:42.746Z,67.56
2023-03-06T16:22:09.242Z,67.59
2023-03-06T16:24:36.750Z,67.22
2023-03-06T16:27:04.273Z,67.14
2023-03-06T16:29:31.081Z,68.54
2023-03-06T16:31:59.995Z,69.40
2023-03-06T16:34:27.218Z,68.64
2023-03-06T16:36:53.959Z,68.58
2023-03-06T16:39:23.122Z,68.63
2023-03-06T16:41:50.711Z,68.87
2023-03-06T16:44:17.656Z,68.92
2023-03-06T16:46:46.454Z,69.00
2023-03-06T16:49:18.672Z,69.11
2023-03-06T16:51:45.655Z,69.13
2023-03-06T16:54:13.266Z,68.90
2023-03-06T16:56:40.189Z,68.71
2023-03-06T16:59:06.598Z,68.89
2023-03-06T17:01:33.154Z,69.04
2023-03-06T17:03:59.679Z,69.30
2023-03-06T17:06:27.107Z,69.24
2023-03-06T17:08:53.984Z,69.43
2023-03-06T17:11:20.721Z,69.62
2023-03-06T17:13:47.759Z,70.34
2023-03-06T17:16:15.863Z,70.57
2023-03-06T17:18:44.586Z,70.44
2023-03-06T17:21:14.928Z,70.97
2023-03-06T17:23:41.746Z,71.81
2023-03-06T17:26:14.345Z,72.03
2023-03-06T17:28:41.887Z,71.97
2023-03-06T17:31:15.945Z,72.35
2023-03-06T17:33:43.117Z,72.31
2023-03-06T17:36:11.199Z,72.86
2023-03-06T17:38:37.740Z,73.20
2023-03-06T17:41:06.063Z,73.77
2023-03-06T17:43:33.236Z,73.43
2023-03-06T17:46:04.621Z,73.98
2023-03-06T17:48:32.419Z,74.78
2023-03-06T17:50:58.931Z,75.11
2023-03-06T17:53:26.378Z,74.85
2023-03-06T17:55:53.249Z,75.31
2023-03-06T17:58:19.627Z,75.78
2023-03-06T18:00:46.627Z,76.12
2023-03-06T18:03:13.724Z,75.27
2023-03-06T18:05:40.334Z,75.44
2023-03-06T18:08:09.581Z,75.13
2023-03-06T18:10:40.671Z,75.51
2023-03-06T18:13:08.617Z,75.86
2023-03-06T18:15:40.126Z,75.61
2023-03-06T18:18:08.000Z,75.67
2023-03-06T18:20:39.559Z,75.51
2023-03-06T18:23:05.998Z,75.91
2023-03-06T18:25:33.118Z,76.41
2023-03-06T18:28:00.058Z,76.63
2023-03-06T18:30:27.169Z,76.47
2023-03-06T18:32:54.102Z,76.74
2023-03-06T18:35:20.857Z,77.35
2023-03-06T18:37:47.338Z,77.46
2023-03-06T18:40:14.632Z,77.36
2023-03-06T18:42:41.603Z,77.66
2023-03-06T18:45:08.862Z,77.36
2023-03-06T18:47:35.506Z,76.95
2023-03-06T18:50:02.692Z,77.10
2023-03-06T18:52:29.851Z,77.74
2023-03-06T18:54:56.984Z,78.07
2023-03-06T18:57:23.443Z,78.87
2023-03-06T18:59:50.101Z,79.31
2023-03-06T19:02:16.669Z,79.74
2023-03-06T19:04:43.109Z,79.82
2023-03-06T19:07:10.121Z,80.17
2023-03-06T19:09:38.348Z,79.60
2023-03-06T19:12:05.260Z,78.40
2023-03-06T19:14:32.082Z,77.98
2023-03-06T19:16:58.533Z,78.04
2023-03-06T19:19:25.781Z,78.22
2023-03-06T19:21:53.454Z,78.54
2023-03-06T19:24:20.555Z,78.49
2023-03-06T19:26:47.023Z,79.28
2023-03-06T19:29:16.456Z,79.61
2023-03-06T19:31:46.356Z,79.57
2023-03-06T19:34:14.106Z,78.85
2023-03-06T19:36:46.124Z,78.93
2023-03-06T19:39:17.452Z,79.15
2023-03-06T19:41:45.843Z,79.26
2023-03-06T19:44:13.979Z,79.05
2023-03-06T19:46:40.682Z,79.47
2023-03-06T19:49:11.502Z,79.11
2023-03-06T19:51:41.351Z,79.21
2023-03-06T19:54:28.180Z,79.19
2023-03-06T19:57:00.996Z,79.03
2023-03-06T19:59:30.724Z,79.06
2023-03-06T20:01:59.180Z,79.38
2023-03-06T20:04:29.285Z,79.48
2023-03-06T20:07:00.345Z,79.69
2023-03-06T20:09:27.773Z,79.71
2023-03-06T20:11:57.006Z,79.72
2023-03-06T20:14:28.354Z,79.73
2023-03-06T20:17:00.806Z,79.66
2023-03-06T20:19:31.804Z,79.84
2023-03-06T20:22:00.903Z,79.84
2023-03-06T20:24:27.752Z,79.79
2023-03-06T20:26:59.202Z,79.92
2023-03-06T20:29:29.121Z,79.76
2023-03-06T20:32:01.432Z,79.74
2023-03-06T20:34:31.770Z,79.85
2023-03-06T20:37:01.300Z,79.82
2023-03-06T20:39:31.585Z,79.63
2023-03-06T20:41:59.509Z,79.45
2023-03-06T20:44:26.864Z,79.50
2023-03-06T20:46:54.629Z,79.61
2023-03-06T20:49:21.797Z,79.49
2023-03-06T20:51:49.742Z,79.73
2023-03-06T20:54:16.711Z,79.73
2023-03-06T20:56:48.155Z,79.61
2023-03-06T20:59:14.968Z,79.56
2023-03-06T21:01:44.444Z,79.71
2023-03-06T21:04:13.274Z,79.73
2023-03-06T21:06:44.661Z,79.55
2023-03-06T21:09:13.299Z,79.58
2023-03-06T21:11:39.907Z,79.60
2023-03-06T21:14:06.489Z,79.70
2023-03-06T21:16:33.350Z,79.55
2023-03-06T21:19:00.532Z,79.51
2023-03-06T21:21:30.443Z,79.68
2023-03-06T21:23:58.784Z,79.59
2023-03-06T21:26:29.965Z,79.69
2023-03-06T21:28:58.275Z,79.69
2023-03-06T21:31:26.523Z,79.80
2023-03-06T21:33:53.503Z,79.89
2023-03-06T21:36:21.265Z,79.85
2023-03-06T21:38:49.545Z,79.75
2023-03-06T21:41:19.467Z,79.79
2023-03-06T21:43:46.343Z,79.86
2023-03-06T21:46:13.594Z,79.90
2023-03-06T21:48:40.659Z,79.78
2023-03-06T21:51:09.920Z,79.75
2023-03-06T21:53:37.908Z,79.88
2023-03-06T21:56:04.635Z,79.86
2023-03-06T21:58:31.291Z,79.77
2023-03-06T22:00:58.313Z,79.80
2023-03-06T22:03:25.154Z,79.92
2023-03-06T22:05:54.285Z,79.93
2023-03-06T22:08:23.300Z,79.93
2023-03-06T22:10:50.069Z,79.92
2023-03-06T22:13:18.682Z,79.95
2023-03-06T22:15:52.576Z,80.13
2023-03-06T22:18:19.106Z,80.29
2023-03-06T22:20:45.621Z,80.31
2023-03-06T22:23:12.586Z,80.24
2023-03-06T22:25:39.310Z,80.42
2023-03-06T22:28:07.130Z,80.36
2023-03-06T22:30:33.940Z,80.54
2023-03-06T22:33:00.532Z,80.31
2023-03-06T22:35:26.967Z,80.61
2023-03-06T22:37:53.951Z,80.65
2023-03-06T22:40:21.410Z,81.05
2023-03-06T22:42:47.846Z,81.50
2023-03-06T22:45:14.280Z,81.70
2023-03-06T22:47:40.797Z,82.21
2023-03-06T22:50:08.563Z,82.24
2023-03-06T22:52:35.978Z,82.43
2023-03-06T22:55:02.536Z,82.80
2023-03-06T22:57:29.546Z,82.91
2023-03-06T22:59:55.960Z,83.03
2023-03-06T23:02:23.039Z,83.29
2023-03-06T23:04:53.244Z,83.25
2023-03-06T23:07:23.424Z,83.43
2023-03-06T23:09:49.852Z,83.64
2023-03-06T23:12:16.284Z,83.80
2023-03-06T23:14:43.056Z,83.80
2023-03-06T23:17:10.050Z,83.83
2023-03-06T23:19:37.494Z,83.81
2023-03-06T23:22:03.973Z,83.80
2023-03-06T23:24:32.677Z,83.92
2023-03-06T23:27:00.036Z,83.71
2023-03-06T23:29:26.441Z,83.68
2023-03-06T23:31:53.300Z,83.42
2023-03-06T23:34:19.775Z,82.97
2023-03-06T23:36:46.407Z,82.85
2023-03-06T23:39:13.911Z,82.61
2023-03-06T23:41:40.397Z,82.55
2023-03-06T23:44:06.961Z,82.74
2023-03-06T23:46:34.293Z,82.92
2023-03-06T23:49:00.749Z,82.70
2023-03-06T23:51:27.168Z,82.64
2023-03-06T23:53:56.818Z,82.88
2023-03-06T23:56:28.139Z,82.57
2023-03-06T23:58:55.128Z,82.38
